createdAt,value
2022-11-10T00:00:47.124Z,101313.19
2022-11-10T00:03:13.657Z,101313.56
2022-11-10T00:05:40.112Z,101320.69
2022-11-10T00:08:09.669Z,101309.97
2022-11-10T00:10:57.399Z,101323.81
2022-11-10T00:13:25.624Z,101309.53
2022-11-10T00:16:10.674Z,101317.50
2022-11-10T00:18:37.114Z,101331.75
2022-11-10T00:21:05.776Z,101331.34
2022-11-10T00:23:32.888Z,101335.69
2022-11-10T00:25:59.734Z,101333.72
2022-11-10T00:28:26.282Z,101341.25
2022-11-10T00:30:52.706Z,101342.03
2022-11-10T00:33:19.434Z,101350.75
2022-11-10T00:35:46.092Z,101338.06
2022-11-10T00:38:12.523Z,101345.19
2022-11-10T00:40:38.986Z,101343.16
2022-11-10T00:43:05.695Z,101347.50
2022-11-10T00:45:32.260Z,101349.09
2022-11-10T00:47:58.816Z,101352.25
2022-11-10T00:50:25.455Z,101355.38
2022-11-10T00:52:51.886Z,101356.97
2022-11-10T00:55:18.478Z,101360.13
2022-11-10T00:57:44.891Z,101360.09
2022-11-10T01:00:11.703Z,101359.31
2022-11-10T01:02:38.456Z,101348.56
2022-11-10T01:05:05.174Z,101364.03
2022-11-10T01:07:32.341Z,101361.63
2022-11-10T01:09:58.901Z,101370.31
2022-11-10T01:12:29.994Z,101377.84
2022-11-10T01:14:57.237Z,101386.13
2022-11-10T01:17:23.734Z,101372.69
2022-11-10T01:19:50.267Z,101377.41
2022-11-10T01:22:16.972Z,101392.13
2022-11-10T01:24:43.427Z,101396.06
2022-11-10T01:27:09.928Z,101392.53
2022-11-10T01:29:36.395Z,101404.41
2022-11-10T01:32:02.882Z,101406.34
2022-11-10T01:34:29.382Z,101409.16
2022-11-10T01:36:55.857Z,101403.59
2022-11-10T01:39:22.342Z,101405.16
2022-11-10T01:41:48.799Z,101412.69
2022-11-10T01:44:21.774Z,101416.28
2022-11-10T01:46:48.306Z,101416.22
2022-11-10T01:49:17.678Z,101417.09
2022-11-10T01:52:02.654Z,101417.84
2022-11-10T01:54:36.169Z,101419.78
2022-11-10T01:57:05.450Z,101425.72
2022-11-10T01:59:37.133Z,101417.03
2022-11-10T02:02:16.918Z,101420.63
2022-11-10T02:04:43.509Z,101426.88
2022-11-10T02:07:11.940Z,101411.84
2022-11-10T02:09:43.596Z,101424.50
2022-11-10T02:12:11.052Z,101428.47
2022-11-10T02:14:38.085Z,101435.19
2022-11-10T02:17:04.527Z,101448.66
2022-11-10T02:19:39.225Z,101443.91
2022-11-10T02:22:05.610Z,101436.72
2022-11-10T02:24:32.519Z,101439.94
2022-11-10T02:26:59.005Z,101444.69
2022-11-10T02:29:25.829Z,101443.88
2022-11-10T02:31:52.615Z,101445.91
2022-11-10T02:34:19.009Z,101437.97
2022-11-10T02:36:45.471Z,101441.50
2022-11-10T02:39:16.463Z,101458.50
2022-11-10T02:41:45.537Z,101447.09
2022-11-10T02:44:11.979Z,101461.28
2022-11-10T02:46:38.464Z,101459.69
2022-11-10T02:49:08.025Z,101458.88
2022-11-10T02:51:34.518Z,101461.22
2022-11-10T02:54:01.009Z,101455.34
2022-11-10T02:56:27.494Z,101454.91
2022-11-10T02:58:54.019Z,101458.06
2022-11-10T03:01:20.438Z,101461.28
2022-11-10T03:03:46.921Z,101473.94
2022-11-10T03:06:13.365Z,101487.06
2022-11-10T03:08:39.876Z,101488.59
2022-11-10T03:11:11.643Z,101484.25
2022-11-10T03:13:59.895Z,101478.72
2022-11-10T03:16:27.483Z,101464.88
2022-11-10T03:18:53.918Z,101470.78
2022-11-10T03:21:20.337Z,101472.03
2022-11-10T03:23:46.763Z,101480.31
2022-11-10T03:26:14.289Z,101471.50
2022-11-10T03:28:40.737Z,101474.38
2022-11-10T03:31:07.144Z,101486.66
2022-11-10T03:33:33.542Z,101493.00
2022-11-10T03:36:00.153Z,101490.63
2022-11-10T03:38:27.727Z,101500.06
2022-11-10T03:43:40.731Z,101509.19
2022-11-10T03:46:08.375Z,101510.75
2022-11-10T03:48:34.938Z,101515.50
2022-11-10T03:51:01.365Z,101517.94
2022-11-10T03:53:27.775Z,101521.16
2022-11-10T03:55:54.191Z,101537.66
2022-11-10T03:58:26.536Z,101546.03
2022-11-10T04:00:54.401Z,101540.47
2022-11-10T04:03:21.686Z,101540.47
2022-11-10T04:06:07.225Z,101534.94
2022-11-10T04:08:52.589Z,101541.25
2022-11-10T04:11:37.862Z,101547.16
2022-11-10T04:14:23.814Z,101562.59
2022-11-10T04:16:53.044Z,101569.72
2022-11-10T04:19:19.598Z,101573.66
2022-11-10T04:21:46.307Z,101579.19
2022-11-10T04:24:12.783Z,101562.19
2022-11-10T04:26:40.545Z,101574.41
2022-11-10T04:29:19.607Z,101582.72
2022-11-10T04:31:46.266Z,101578.41
2022-11-10T04:34:14.830Z,101579.53
2022-11-10T04:36:44.868Z,101587.44
2022-11-10T04:39:11.649Z,101593.75
2022-11-10T04:41:38.181Z,101598.16
2022-11-10T04:44:08.797Z,101593.38
2022-11-10T04:46:37.391Z,101617.78
2022-11-10T04:49:05.495Z,101603.22
2022-11-10T04:51:36.709Z,101605.66
2022-11-10T04:54:04.246Z,101610.31
2022-11-10T04:56:30.664Z,101616.22
2022-11-10T04:58:58.484Z,101623.41
2022-11-10T05:01:31.328Z,101624.88
2022-11-10T05:03:57.850Z,101620.19
2022-11-10T05:06:24.612Z,101631.63
2022-11-10T05:08:51.740Z,101628.88
2022-11-10T05:11:19.048Z,101629.59
2022-11-10T05:13:46.298Z,101639.41
2022-11-10T05:16:13.375Z,101645.78
2022-11-10T05:18:40.459Z,101636.63
2022-11-10T05:21:06.996Z,101641.91
2022-11-10T05:23:39.532Z,101660.06
2022-11-10T05:26:11.134Z,101659.63
2022-11-10T05:28:38.979Z,101676.25
2022-11-10T05:31:06.185Z,101667.50
2022-11-10T05:33:36.505Z,101667.22
2022-11-10T05:36:05.661Z,101672.25
2022-11-10T05:38:32.482Z,101677.75
2022-11-10T05:40:58.929Z,101687.59
2022-11-10T05:43:25.777Z,101694.34
2022-11-10T05:45:52.372Z,101685.22
2022-11-10T05:48:21.770Z,101698.72
2022-11-10T05:50:48.366Z,101695.09
2022-11-10T05:53:14.797Z,101692.72
2022-11-10T05:55:47.010Z,101683.66
2022-11-10T05:58:13.481Z,101684.84
2022-11-10T06:00:39.908Z,101687.97
2022-11-10T06:03:13.123Z,101695.53
2022-11-10T06:05:39.625Z,101690.28
2022-11-10T06:08:06.794Z,101693.38
2022-11-10T06:10:34.341Z,101696.63
2022-11-10T06:13:03.670Z,101697.00
2022-11-10T06:15:30.171Z,101696.94
2022-11-10T06:17:57.199Z,101699.28
2022-11-10T06:20:24.622Z,101701.69
2022-11-10T06:23:10.158Z,101703.31
2022-11-10T06:25:38.122Z,101716.31
2022-11-10T06:28:05.932Z,101732.91
2022-11-10T06:30:34.968Z,101739.28
2022-11-10T06:33:01.904Z,101748.28
2022-11-10T06:35:29.832Z,101742.47
2022-11-10T06:38:06.882Z,101745.94
2022-11-10T06:40:33.735Z,101747.50
2022-11-10T06:43:00.387Z,101756.91
2022-11-10T06:45:28.450Z,101768.50
2022-11-10T06:48:12.311Z,101766.50
2022-11-10T06:50:38.763Z,101777.56
2022-11-10T06:53:05.328Z,101785.88
2022-11-10T06:55:32.421Z,101777.56
2022-11-10T06:57:58.884Z,101779.91
2022-11-10T07:00:26.736Z,101781.56
2022-11-10T07:03:04.436Z,101787.75
2022-11-10T07:05:32.800Z,101795.03
2022-11-10T07:08:04.517Z,101804.47
2022-11-10T07:10:31.892Z,101812.00
2022-11-10T07:12:59.769Z,101817.19
2022-11-10T07:15:26.519Z,101815.25
2022-11-10T07:17:53.069Z,101820.41
2022-11-10T07:20:19.673Z,101824.41
2022-11-10T07:22:46.382Z,101824.09
2022-11-10T07:25:12.911Z,101822.38
2022-11-10T07:27:39.338Z,101837.06
2022-11-10T07:30:06.668Z,101836.34
2022-11-10T07:32:33.130Z,101838.84
2022-11-10T07:34:59.514Z,101844.72
2022-11-10T07:37:25.941Z,101839.72
2022-11-10T07:39:52.442Z,101844.81
2022-11-10T07:42:18.900Z,101844.91
2022-11-10T07:44:45.472Z,101852.09
2022-11-10T07:47:11.907Z,101850.13
2022-11-10T07:49:38.345Z,101862.47
2022-11-10T07:52:10.221Z,101855.66
2022-11-10T07:54:36.626Z,101868.13
2022-11-10T07:57:03.054Z,101873.34
2022-11-10T07:59:29.447Z,101880.22
2022-11-10T08:01:55.847Z,101869.56
2022-11-10T08:04:22.270Z,101881.88
2022-11-10T08:06:48.894Z,101880.31
2022-11-10T08:09:15.595Z,101883.50
2022-11-10T08:11:42.181Z,101882.41
2022-11-10T08:14:08.635Z,101902.31
2022-11-10T08:16:35.104Z,101909.56
2022-11-10T08:19:01.537Z,101912.00
2022-11-10T08:21:27.972Z,101899.34
2022-11-10T08:23:54.439Z,101910.25
2022-11-10T08:26:21.456Z,101910.25
2022-11-10T08:28:48.128Z,101918.25
2022-11-10T08:31:14.653Z,101915.19
2022-11-10T08:33:41.098Z,101914.72
2022-11-10T08:36:08.243Z,101924.03
2022-11-10T08:38:35.001Z,101923.97
2022-11-10T08:41:01.472Z,101927.28
2022-11-10T08:43:28.342Z,101931.31
2022-11-10T08:45:56.968Z,101938.53
2022-11-10T08:48:24.068Z,101931.06
2022-11-10T08:50:51.490Z,101931.44
2022-11-10T08:53:20.988Z,101941.19
2022-11-10T08:55:48.093Z,101935.25
2022-11-10T08:58:16.591Z,101953.16
2022-11-10T09:00:43.303Z,101958.84
2022-11-10T09:03:22.228Z,101958.09
2022-11-10T09:05:55.046Z,101960.81
2022-11-10T09:08:23.260Z,101955.41
2022-11-10T09:10:51.123Z,101954.22
2022-11-10T09:13:26.094Z,101948.00
2022-11-10T09:15:56.548Z,101961.09
2022-11-10T09:18:22.983Z,101963.91
2022-11-10T09:20:49.428Z,101957.34
2022-11-10T09:23:18.823Z,101941.22
2022-11-10T09:25:50.645Z,101949.47
2022-11-10T09:28:17.777Z,101956.19
2022-11-10T09:30:48.934Z,101980.50
2022-11-10T09:33:16.112Z,101975.31
2022-11-10T09:35:43.052Z,101982.94
2022-11-10T09:38:09.943Z,101985.75
2022-11-10T09:40:42.277Z,101976.28
2022-11-10T09:43:16.155Z,101990.22
2022-11-10T09:45:46.882Z,101991.50
2022-11-10T09:48:31.395Z,102000.22
2022-11-10T09:51:12.743Z,101993.09
2022-11-10T09:53:48.750Z,102002.25
2022-11-10T09:56:21.564Z,102004.22
2022-11-10T09:58:48.167Z,102002.78
2022-11-10T10:01:38.880Z,102003.16
2022-11-10T10:04:29.932Z,102007.59
2022-11-10T10:07:13.242Z,102025.88
2022-11-10T10:10:02.477Z,102027.50
2022-11-10T10:13:02.925Z,102015.25
2022-11-10T10:15:44.957Z,102018.06
2022-11-10T10:18:43.609Z,102014.47
2022-11-10T10:21:27.366Z,102022.84
2022-11-10T10:24:11.077Z,102026.84
2022-11-10T10:26:49.250Z,102035.19
2022-11-10T10:29:23.375Z,102032.44
2022-11-10T10:31:53.377Z,102021.28
2022-11-10T10:34:30.141Z,102006.94
2022-11-10T10:36:56.628Z,102021.22
2022-11-10T10:39:30.361Z,102013.94
2022-11-10T10:41:57.359Z,102028.31
2022-11-10T10:44:24.150Z,102010.31
2022-11-10T10:46:51.726Z,102011.09
2022-11-10T10:49:29.758Z,102008.41
2022-11-10T10:52:13.558Z,102024.22
2022-11-10T10:54:40.383Z,102032.56
2022-11-10T10:57:21.355Z,102027.25
2022-11-10T10:59:47.933Z,102019.66
2022-11-10T11:02:29.663Z,102048.97
2022-11-10T11:05:14.538Z,102042.22
2022-11-10T11:07:41.999Z,102042.09
2022-11-10T11:10:33.674Z,102035.25
2022-11-10T11:13:32.499Z,102050.34
2022-11-10T11:16:01.195Z,102055.13
2022-11-10T11:18:30.070Z,102045.31
2022-11-10T11:20:59.433Z,102049.88
2022-11-10T11:23:56.442Z,102062.47
2022-11-10T11:26:32.524Z,102055.44
2022-11-10T11:29:32.191Z,102056.47
2022-11-10T11:32:17.303Z,102061.47
2022-11-10T11:35:15.901Z,102059.91
2022-11-10T11:38:02.916Z,102065.78
2022-11-10T11:40:29.321Z,102074.53
2022-11-10T11:43:12.733Z,102066.19
2022-11-10T11:45:48.172Z,102072.75
2022-11-10T11:48:18.506Z,102084.91
2022-11-10T11:50:59.114Z,102078.03
2022-11-10T11:53:56.900Z,102064.59
2022-11-10T11:56:30.689Z,102087.63
2022-11-10T11:59:24.520Z,102085.47
2022-11-10T12:02:34.449Z,102089.81
2022-11-10T12:05:19.164Z,102089.50
2022-11-10T12:08:06.981Z,102075.88
2022-11-10T12:11:07.704Z,102077.84
2022-11-10T12:13:34.213Z,102089.47
2022-11-10T12:16:00.703Z,102095.91
2022-11-10T12:18:31.461Z,102095.78
2022-11-10T12:21:13.249Z,102091.28
2022-11-10T12:23:55.026Z,102096.16
2022-11-10T12:26:33.533Z,102097.00
2022-11-10T12:29:17.685Z,102087.09
2022-11-10T12:31:47.683Z,102096.91
2022-11-10T12:34:33.710Z,102122.44
2022-11-10T12:37:02.985Z,102106.69
2022-11-10T12:39:47.930Z,102109.00
2022-11-10T12:42:21.407Z,102127.81
2022-11-10T12:45:17.299Z,102106.50
2022-11-10T12:47:45.086Z,102120.31
2022-11-10T12:50:33.281Z,102126.34
2022-11-10T12:53:05.119Z,102117.72
2022-11-10T12:55:39.727Z,102138.44
2022-11-10T12:58:07.247Z,102120.13
2022-11-10T13:00:54.490Z,102119.66
2022-11-10T13:03:27.441Z,102116.69
2022-11-10T13:06:00.598Z,102121.31
2022-11-10T13:08:43.755Z,102124.31
2022-11-10T13:11:12.893Z,102119.06
2022-11-10T13:13:53.161Z,102116.69
2022-11-10T13:16:40.483Z,102123.56
2022-11-10T13:19:12.022Z,102113.97
2022-11-10T13:21:50.854Z,102106.72
2022-11-10T13:24:23.889Z,102122.66
2022-11-10T13:26:55.271Z,102120.19
2022-11-10T13:29:31.857Z,102118.00
2022-11-10T13:32:00.205Z,102115.72
2022-11-10T13:34:37.759Z,102123.47
2022-11-10T13:37:33.148Z,102125.94
2022-11-10T13:40:36.301Z,102122.28
2022-11-10T13:43:03.167Z,102124.59
2022-11-10T13:45:29.717Z,102114.41
2022-11-10T13:48:06.643Z,102124.00
2022-11-10T13:51:04.074Z,102117.84
2022-11-10T13:54:07.230Z,102113.22
2022-11-10T13:57:00.779Z,102135.41
2022-11-10T13:59:30.372Z,102110.59
2022-11-10T14:02:38.794Z,102099.00
2022-11-10T14:05:07.453Z,102120.81
2022-11-10T14:07:41.395Z,102112.84
2022-11-10T14:10:15.871Z,102115.16
2022-11-10T14:13:03.739Z,102111.81
2022-11-10T14:15:39.854Z,102122.75
2022-11-10T14:18:18.281Z,102112.00
2022-11-10T14:20:47.607Z,102110.72
2022-11-10T14:23:24.049Z,102112.72
2022-11-10T14:25:58.822Z,102115.13
2022-11-10T14:28:33.908Z,102118.41
2022-11-10T14:31:00.888Z,102143.94
2022-11-10T14:33:27.606Z,102139.22
2022-11-10T14:35:58.483Z,102151.81
2022-11-10T14:38:29.426Z,102137.75
2022-11-10T14:40:58.996Z,102140.69
2022-11-10T14:43:34.669Z,102131.72
2022-11-10T14:46:03.266Z,102131.38
2022-11-10T14:48:32.590Z,102122.13
2022-11-10T14:51:05.455Z,102124.38
2022-11-10T14:53:37.506Z,102135.28
2022-11-10T14:56:07.312Z,102127.78
2022-11-10T14:58:39.289Z,102148.66
2022-11-10T15:01:07.109Z,102148.69
2022-11-10T15:03:35.694Z,102143.09
2022-11-10T15:06:04.644Z,102139.09
2022-11-10T15:08:33.219Z,102154.31
2022-11-10T15:10:59.789Z,102157.16
2022-11-10T15:13:33.259Z,102144.41
2022-11-10T15:16:21.722Z,102149.97
2022-11-10T15:18:51.005Z,102150.75
2022-11-10T15:21:20.222Z,102167.53
2022-11-10T15:23:52.931Z,102160.38
2022-11-10T15:26:26.174Z,102164.38
2022-11-10T15:28:53.100Z,102171.94
2022-11-10T15:31:31.302Z,102173.94
2022-11-10T15:34:04.230Z,102168.00
2022-11-10T15:36:32.349Z,102162.38
2022-11-10T15:39:11.577Z,102159.19
2022-11-10T15:41:43.563Z,102158.41
2022-11-10T15:44:30.141Z,102155.25
2022-11-10T15:46:58.851Z,102152.03
2022-11-10T15:49:32.576Z,102166.38
2022-11-10T15:52:02.452Z,102164.81
2022-11-10T15:54:34.256Z,102168.78
2022-11-10T15:57:01.235Z,102168.38
2022-11-10T15:59:27.985Z,102183.50
2022-11-10T16:01:54.523Z,102182.31
2022-11-10T16:04:21.025Z,102182.31
2022-11-10T16:06:47.548Z,102191.88
2022-11-10T16:09:14.204Z,102192.69
2022-11-10T16:11:43.865Z,102197.44
2022-11-10T16:14:15.172Z,102207.81
2022-11-10T16:16:42.614Z,102212.97
2022-11-10T16:19:12.737Z,102215.34
2022-11-10T16:21:40.281Z,102212.59
2022-11-10T16:24:06.878Z,102216.97
2022-11-10T16:26:34.884Z,102228.84
2022-11-10T16:29:02.722Z,102228.44
2022-11-10T16:31:30.271Z,102215.25
2022-11-10T16:33:56.703Z,102222.88
2022-11-10T16:36:31.649Z,102234.00
2022-11-10T16:39:18.406Z,102222.00
2022-11-10T16:41:45.228Z,102222.03
2022-11-10T16:44:13.861Z,102230.75
2022-11-10T16:46:42.457Z,102228.34
2022-11-10T16:49:26.085Z,102228.72
2022-11-10T16:51:52.834Z,102241.81
2022-11-10T16:54:19.352Z,102238.25
2022-11-10T16:56:45.817Z,102237.41
2022-11-10T16:59:13.422Z,102242.16
2022-11-10T17:01:43.822Z,102247.31
2022-11-10T17:04:13.195Z,102248.50
2022-11-10T17:06:40.309Z,102240.84
2022-11-10T17:09:26.584Z,102246.06
2022-11-10T17:11:53.023Z,102253.63
2022-11-10T17:14:21.570Z,102262.75
2022-11-10T17:16:48.064Z,102265.09
2022-11-10T17:19:25.244Z,102265.53
2022-11-10T17:21:53.869Z,102271.41
2022-11-10T17:24:20.770Z,102272.16
2022-11-10T17:26:47.865Z,102282.16
2022-11-10T17:29:20.912Z,102285.69
2022-11-10T17:31:50.151Z,102291.66
2022-11-10T17:34:16.579Z,102292.03
2022-11-10T17:36:43.499Z,102297.94
2022-11-10T17:39:15.130Z,102294.34
2022-11-10T17:41:41.712Z,102293.94
2022-11-10T17:44:14.152Z,102291.94
2022-11-10T17:46:41.581Z,102286.78
2022-11-10T17:49:08.420Z,102289.09
2022-11-10T17:51:36.664Z,102292.97
2022-11-10T17:54:06.312Z,102300.91
2022-11-10T17:56:33.100Z,102293.31
2022-11-10T17:58:59.927Z,102306.09
2022-11-10T18:01:26.482Z,102302.53
2022-11-10T18:03:53.018Z,102300.84
2022-11-10T18:06:20.658Z,102294.00
2022-11-10T18:08:47.890Z,102300.13
2022-11-10T18:11:17.446Z,102293.69
2022-11-10T18:13:44.655Z,102296.09
2022-11-10T18:16:12.998Z,102309.63
2022-11-10T18:18:39.932Z,102310.00
2022-11-10T18:21:07.601Z,102308.81
2022-11-10T18:23:34.253Z,102308.28
2022-11-10T18:26:08.429Z,102305.47
2022-11-10T18:28:35.851Z,102311.09
2022-11-10T18:31:09.889Z,102315.44
2022-11-10T18:33:36.965Z,102318.09
2022-11-10T18:36:03.980Z,102317.44
2022-11-10T18:38:30.634Z,102319.06
2022-11-10T18:41:20.866Z,102332.13
2022-11-10T18:43:47.293Z,102328.66
2022-11-10T18:46:13.708Z,102332.13
2022-11-10T18:48:41.122Z,102325.00
2022-11-10T18:51:07.571Z,102327.31
2022-11-10T18:53:38.190Z,102320.53
2022-11-10T18:56:05.449Z,102327.63
2022-11-10T18:58:31.940Z,102343.50
2022-11-10T19:01:02.901Z,102340.31
2022-11-10T19:03:29.326Z,102348.16
2022-11-10T19:05:58.765Z,102338.22
2022-11-10T19:08:27.423Z,102336.06
2022-11-10T19:10:55.201Z,102340.47
2022-11-10T19:13:22.594Z,102339.13
2022-11-10T19:15:49.422Z,102336.84
2022-11-10T19:18:16.059Z,102329.66
2022-11-10T19:20:42.718Z,102331.63
2022-11-10T19:23:09.215Z,102327.91
2022-11-10T19:25:35.640Z,102319.13
2022-11-10T19:28:02.177Z,102317.63
2022-11-10T19:30:31.672Z,102327.44
2022-11-10T19:32:58.178Z,102331.03
2022-11-10T19:35:24.625Z,102336.91
2022-11-10T19:37:53.995Z,102338.00
2022-11-10T19:40:21.502Z,102327.72
2022-11-10T19:42:48.166Z,102333.19
2022-11-10T19:45:15.485Z,102335.59
2022-11-10T19:47:42.767Z,102326.50
2022-11-10T19:50:09.465Z,102326.88
2022-11-10T19:52:35.973Z,102337.53
2022-11-10T19:55:02.578Z,102337.47
2022-11-10T19:57:29.084Z,102339.81
2022-11-10T19:59:55.797Z,102359.94
2022-11-10T20:02:22.230Z,102361.19
2022-11-10T20:05:07.503Z,102353.94
2022-11-10T20:07:52.254Z,102371.09
2022-11-10T20:10:18.681Z,102376.88
2022-11-10T20:12:45.169Z,102361.47
2022-11-10T20:15:11.703Z,102364.00
2022-11-10T20:17:38.126Z,102352.53
2022-11-10T20:20:05.341Z,102363.63
2022-11-10T20:22:31.755Z,102358.88
2022-11-10T20:24:58.207Z,102357.66
2022-11-10T20:27:25.154Z,102365.59
2022-11-10T20:29:51.611Z,102368.78
2022-11-10T20:32:18.060Z,102373.72
2022-11-10T20:34:44.516Z,102375.06
2022-11-10T20:37:10.916Z,102369.72
2022-11-10T20:39:37.375Z,102366.06
2022-11-10T20:42:03.970Z,102377.19
2022-11-10T20:44:30.527Z,102378.47
2022-11-10T20:46:57.232Z,102385.19
2022-11-10T20:49:23.799Z,102392.19
2022-11-10T20:51:50.237Z,102394.09
2022-11-10T20:54:17.331Z,102390.22
2022-11-10T20:56:43.822Z,102394.03
2022-11-10T20:59:11.160Z,102385.94
2022-11-10T21:01:37.865Z,102392.38
2022-11-10T21:04:06.083Z,102379.53
2022-11-10T21:06:32.850Z,102396.25
2022-11-10T21:08:59.405Z,102397.03
2022-11-10T21:11:44.444Z,102396.88
2022-11-10T21:14:10.848Z,102399.78
2022-11-10T21:16:37.297Z,102406.50
2022-11-10T21:19:03.827Z,102398.41
2022-11-10T21:21:36.086Z,102395.31
2022-11-10T21:24:07.066Z,102399.69
2022-11-10T21:26:35.555Z,102408.63
2022-11-10T21:29:03.214Z,102413.44
2022-11-10T21:31:30.634Z,102412.22
2022-11-10T21:34:00.416Z,102411.13
2022-11-10T21:36:29.387Z,102429.75
2022-11-10T21:38:56.884Z,102429.31
2022-11-10T21:41:23.474Z,102428.00
2022-11-10T21:43:50.060Z,102428.88
2022-11-10T21:46:16.650Z,102434.75
2022-11-10T21:48:43.222Z,102423.56
2022-11-10T21:51:11.020Z,102421.88
2022-11-10T21:53:39.059Z,102420.66
2022-11-10T21:56:08.211Z,102411.97
2022-11-10T21:58:34.968Z,102422.63
2022-11-10T22:01:11.808Z,102423.19
2022-11-10T22:03:38.719Z,102424.75
2022-11-10T22:06:10.540Z,102427.44
2022-11-10T22:08:38.374Z,102421.97
2022-11-10T22:11:24.707Z,102426.56
2022-11-10T22:14:09.361Z,102422.47
2022-11-10T22:17:12.625Z,102426.56
2022-11-10T22:19:39.120Z,102425.25
2022-11-10T22:22:06.009Z,102424.00
2022-11-10T22:24:33.687Z,102412.69
2022-11-10T22:27:02.137Z,102419.19
2022-11-10T22:29:31.990Z,102414.00
2022-11-10T22:31:59.878Z,102420.28
2022-11-10T22:34:26.381Z,102427.47
2022-11-10T22:36:54.618Z,102442.13
2022-11-10T22:39:21.175Z,102434.47
2022-11-10T22:42:06.601Z,102438.41
2022-11-10T22:44:33.398Z,102423.38
2022-11-10T22:47:02.921Z,102421.31
2022-11-10T22:49:29.372Z,102426.28
2022-11-10T22:51:55.834Z,102433.28
2022-11-10T22:54:23.557Z,102436.56
2022-11-10T22:56:51.010Z,102444.91
2022-11-10T22:59:17.892Z,102452.72
2022-11-10T23:01:44.693Z,102457.84
